Impacts METAR Board
IDs:

KLAS - Las Vegas/McCarran I, NV, US

Updated at: 0900 UTC 18 Jan 2019
Potential Impact None Slight Moderate High
Time 17/21Z 17/22Z 17/23Z 18/00Z 18/01Z 18/02Z 18/03Z 18/04Z 18/05Z 18/06Z 18/07Z 18/08Z 18/09Z
Temp60 62 61 61 60 60 59 59 59 57 56 57 55
Dewpt49 48 49 48 48 47 44 43 42 42 41 40 40
Altim29.97 29.97 29.97 29.97 29.97 29.98 29.97 29.97 29.96 29.96 30.00 30.02 30.00
VIS10 10 10 10 10 10 10 10 10 10 10 10 10
CIG60 60 60 75 70 200 200 200 200 200 250 -- 240
CoverBKNBKNBKNBKNBKNBKNBKNOVCOVCBKNBKNSCTBKN
FltCatVFRVFRVFRVFRVFRVFRVFRVFRVFRVFRVFRVFRVFR
WX--------------------------
WDir190190220200170200190220150200200240220
WSpd12 12 8 7 10 11 11 17 7 15 4 9 6
WGst20 23 16 21 14 20 -- 25 -- 21 -- -- --
Raw hourly METARs
KLAS 172056Z 19012G20KT 10SM FEW047 SCT050 BKN060 16/09 A2997 RMK AO2 RAE39 PRESFR SLP143 VCSH P0000 60003 T01560094 58036
KLAS 172156Z 19012G23KT 10SM FEW033 SCT050 BKN060 17/09 A2997 RMK AO2 RAB20E29 SLP141 P0000 T01670089
KLAS 172256Z 22008G16KT 10SM FEW033 SCT050 BKN060 16/09 A2997 RMK AO2 SLP142 T01610094
KLAS 172356Z 20007G21KT 10SM FEW035 SCT050 BKN075 BKN200 16/09 A2997 RMK AO2 SLP143 60003 T01610089 10167 20122 53000
KLAS 180056Z 17010G14KT 10SM FEW035 SCT050 BKN070 BKN200 16/09 A2997 RMK AO2 SLP142 T01560089
KLAS 180156Z 20011G20KT 10SM FEW035 SCT050 BKN200 16/08 A2998 RMK AO2 SLP146 T01560083
KLAS 180256Z 19011KT 10SM FEW035 SCT050 BKN200 15/07 A2997 RMK AO2 PRESFR SLP140 T01500067 58002
KLAS 180356Z 22017G25KT 10SM FEW050 OVC200 15/06 A2997 RMK AO2 SLP140 T01500061
KLAS 180456Z 15007KT 10SM FEW050 OVC200 15/06 A2996 RMK AO2 PK WND 22028/0401 SLP135 T01500056
KLAS 180556Z 20015G21KT 10SM FEW050 BKN200 14/06 A2996 RMK AO2 SLP138 T01390056 10161 20139 55002
KLAS 180656Z 20004KT 10SM FEW090 BKN250 13/05 A3000 RMK AO2 SLP153 T01330050
KLAS 180756Z 24009KT 10SM SCT250 14/04 A3002 RMK AO2 SLP156 T01390044 401670094
KLAS 180856Z 22006KT 10SM BKN240 13/04 A3000 RMK AO2 SLP150 T01280044 50013



Page loaded:  09:58 UTC  |   01:58 AM Pacific  |   02:58 AM Mountain  |   03:58 AM Central  |   04:58 AM Eastern

 

ADVISORIES

FORECASTS

FORECASTS

OBSERVATIONS

USER TOOLS

ABOUT US